createdAt,value
2017-12-10T00:01:46.851Z,1.50
2017-12-10T00:04:14.454Z,1.50
2017-12-10T00:06:41.968Z,1.50
2017-12-10T00:09:09.586Z,1.50
2017-12-10T00:11:37.096Z,1.40
2017-12-10T00:14:04.694Z,1.40
2017-12-10T00:16:32.265Z,1.40
2017-12-10T00:18:59.891Z,1.40
2017-12-10T00:21:28.198Z,1.30
2017-12-10T00:23:55.725Z,1.30
2017-12-10T00:26:24.000Z,1.20
2017-12-10T00:28:52.298Z,1.30
2017-12-10T00:31:19.807Z,1.20
2017-12-10T00:33:47.344Z,1.30
2017-12-10T00:36:14.849Z,1.30
2017-12-10T00:38:42.447Z,1.30
2017-12-10T00:41:09.956Z,1.30
2017-12-10T00:43:37.496Z,1.30
2017-12-10T00:46:05.006Z,1.40
2017-12-10T00:48:33.288Z,1.40
2017-12-10T00:51:01.689Z,1.40
2017-12-10T00:53:29.250Z,1.30
2017-12-10T00:55:56.789Z,1.40
2017-12-10T00:58:25.058Z,1.30
2017-12-10T01:00:53.362Z,1.30
2017-12-10T01:03:20.895Z,1.30
2017-12-10T01:05:48.415Z,1.30
2017-12-10T01:08:15.942Z,1.30
2017-12-10T01:10:43.498Z,1.30
2017-12-10T01:13:11.011Z,1.30
2017-12-10T01:15:38.540Z,1.30
2017-12-10T01:18:06.053Z,1.30
2017-12-10T01:20:34.349Z,1.30
2017-12-10T01:23:01.846Z,1.20
2017-12-10T01:25:29.373Z,1.20
2017-12-10T01:27:56.942Z,1.20
2017-12-10T01:30:24.466Z,1.20
2017-12-10T01:32:52.744Z,1.20
2017-12-10T01:35:20.250Z,1.20
2017-12-10T01:37:47.827Z,1.20
2017-12-10T01:40:15.377Z,1.20
2017-12-10T01:42:42.902Z,1.20
2017-12-10T01:45:11.172Z,1.10
2017-12-10T01:47:39.580Z,1.10
2017-12-10T01:50:07.094Z,1.00
2017-12-10T01:52:34.709Z,1.10
2017-12-10T01:55:02.259Z,1.00
2017-12-10T01:57:29.786Z,1.10
2017-12-10T01:59:57.386Z,1.00
2017-12-10T02:02:24.948Z,1.00
2017-12-10T02:04:52.456Z,0.90
2017-12-10T02:07:20.058Z,0.90
2017-12-10T02:09:47.639Z,0.80
2017-12-10T02:12:15.283Z,0.80
2017-12-10T02:14:42.796Z,0.90
2017-12-10T02:17:11.082Z,0.80
2017-12-10T02:19:38.680Z,0.80
2017-12-10T02:22:06.203Z,0.80
2017-12-10T02:24:33.702Z,0.80
2017-12-10T02:27:01.243Z,0.80
2017-12-10T02:29:29.542Z,0.80
2017-12-10T02:31:57.094Z,0.80
2017-12-10T02:34:24.623Z,0.80
2017-12-10T02:36:52.223Z,0.80
2017-12-10T02:39:19.756Z,0.80
2017-12-10T02:41:48.058Z,0.90
2017-12-10T02:44:15.614Z,0.90
2017-12-10T02:46:43.119Z,0.90
2017-12-10T02:49:10.637Z,0.90
2017-12-10T02:51:38.150Z,1.00
2017-12-10T02:54:05.676Z,1.00
2017-12-10T02:56:33.215Z,0.90
2017-12-10T02:59:00.778Z,1.00
2017-12-10T03:01:28.287Z,1.00
2017-12-10T03:03:55.820Z,1.00
2017-12-10T03:06:23.331Z,1.00
2017-12-10T03:08:51.634Z,1.00
2017-12-10T03:11:19.144Z,1.00
2017-12-10T03:13:47.474Z,1.00
2017-12-10T03:16:15.040Z,1.00
2017-12-10T03:18:45.559Z,1.10
2017-12-10T03:21:13.080Z,1.10
2017-12-10T03:23:40.683Z,1.10
2017-12-10T03:26:08.243Z,1.10
2017-12-10T03:28:35.808Z,1.00
2017-12-10T03:31:03.372Z,1.00
2017-12-10T03:33:30.927Z,1.10
2017-12-10T03:35:58.486Z,1.10
2017-12-10T03:38:26.052Z,1.10
2017-12-10T03:40:53.607Z,1.10
2017-12-10T03:43:21.120Z,1.10
2017-12-10T03:45:48.730Z,1.10
2017-12-10T03:48:16.285Z,1.10
2017-12-10T03:50:43.858Z,1.10
2017-12-10T03:53:11.375Z,1.20
2017-12-10T03:55:38.902Z,1.10
2017-12-10T03:58:06.407Z,1.20
2017-12-10T04:00:34.702Z,1.20
2017-12-10T04:03:02.202Z,1.20
2017-12-10T04:05:29.843Z,1.20
2017-12-10T04:07:57.386Z,1.20
2017-12-10T04:10:24.923Z,1.20
2017-12-10T04:12:52.520Z,1.20
2017-12-10T04:15:20.074Z,1.20
2017-12-10T04:17:47.602Z,1.20
2017-12-10T04:20:15.877Z,1.10
2017-12-10T04:22:43.466Z,1.10
2017-12-10T04:25:11.035Z,1.10
2017-12-10T04:27:38.602Z,1.10
2017-12-10T04:30:06.102Z,1.10
2017-12-10T04:32:33.628Z,1.10
2017-12-10T04:35:01.136Z,1.10
2017-12-10T04:37:28.663Z,1.10
2017-12-10T04:39:56.170Z,1.10
2017-12-10T04:42:24.454Z,1.10
2017-12-10T04:44:52.752Z,1.10
2017-12-10T04:47:20.271Z,1.00
2017-12-10T04:49:47.862Z,1.00
2017-12-10T04:52:15.423Z,1.00
2017-12-10T04:54:42.933Z,1.00
2017-12-10T04:57:10.534Z,1.00
2017-12-10T04:59:38.828Z,1.00
2017-12-10T05:02:06.382Z,1.00
2017-12-10T05:04:33.881Z,1.10
2017-12-10T05:07:01.416Z,1.00
2017-12-10T05:09:28.950Z,1.10
2017-12-10T05:11:57.247Z,1.00
2017-12-10T05:14:24.772Z,1.00
2017-12-10T05:16:52.279Z,1.00
2017-12-10T05:19:19.799Z,1.00
2017-12-10T05:21:48.100Z,1.00
2017-12-10T05:24:15.626Z,1.00
2017-12-10T05:26:43.934Z,1.10
2017-12-10T05:29:11.454Z,1.00
2017-12-10T05:31:38.955Z,1.10
2017-12-10T05:34:06.518Z,1.10
2017-12-10T05:36:34.074Z,1.00
2017-12-10T05:39:01.617Z,1.00
2017-12-10T05:41:29.883Z,1.00
2017-12-10T05:43:57.410Z,0.90
2017-12-10T05:46:24.942Z,0.90
2017-12-10T05:48:52.491Z,0.80
2017-12-10T05:51:19.986Z,0.80
2017-12-10T05:53:47.518Z,0.80
2017-12-10T05:56:15.078Z,0.70
2017-12-10T05:58:42.636Z,0.80
2017-12-10T06:01:10.915Z,0.80
2017-12-10T06:03:38.802Z,0.80
2017-12-10T06:06:06.302Z,0.70
2017-12-10T06:08:33.898Z,0.70
2017-12-10T06:11:01.420Z,0.60
2017-12-10T06:13:28.913Z,0.60
2017-12-10T06:15:57.301Z,0.70
2017-12-10T06:18:24.799Z,0.60
2017-12-10T06:20:52.414Z,0.70
2017-12-10T06:23:20.678Z,0.70
2017-12-10T06:25:48.963Z,0.70
2017-12-10T06:28:17.229Z,0.80
2017-12-10T06:30:45.514Z,0.80
2017-12-10T06:33:13.779Z,0.80
2017-12-10T06:35:41.294Z,0.80
2017-12-10T06:38:08.795Z,0.80
2017-12-10T06:40:36.311Z,0.80
2017-12-10T06:43:03.822Z,0.80
2017-12-10T06:45:32.109Z,0.80
2017-12-10T06:48:00.396Z,0.90
2017-12-10T06:50:27.958Z,0.90
2017-12-10T06:52:55.458Z,0.90
2017-12-10T06:55:22.984Z,0.90
2017-12-10T06:57:50.506Z,1.00
2017-12-10T07:00:18.108Z,1.00
2017-12-10T07:02:45.666Z,0.90
2017-12-10T07:05:13.227Z,0.90
2017-12-10T07:07:40.751Z,1.00
2017-12-10T07:10:08.266Z,0.90
2017-12-10T07:12:35.912Z,0.90
2017-12-10T07:15:03.472Z,0.90
2017-12-10T07:17:31.000Z,0.90
2017-12-10T07:19:59.274Z,0.90
2017-12-10T07:22:26.866Z,0.80
2017-12-10T07:24:54.433Z,0.90
2017-12-10T07:27:21.983Z,0.80
2017-12-10T07:29:49.494Z,0.80
2017-12-10T07:32:17.005Z,0.90
2017-12-10T07:34:44.565Z,0.90
2017-12-10T07:37:12.098Z,0.90
2017-12-10T07:39:40.465Z,0.80
2017-12-10T07:42:08.801Z,0.80
2017-12-10T07:44:36.770Z,0.80
2017-12-10T07:47:04.331Z,0.70
2017-12-10T07:49:31.876Z,0.70
2017-12-10T07:52:00.258Z,0.50
2017-12-10T07:54:28.528Z,0.50
2017-12-10T07:56:56.028Z,0.50
2017-12-10T07:59:23.549Z,0.50
2017-12-10T08:01:51.917Z,0.50
2017-12-10T08:04:19.512Z,0.50
2017-12-10T08:06:47.059Z,0.50
2017-12-10T08:09:14.669Z,0.50
2017-12-10T08:11:42.268Z,0.60
2017-12-10T08:14:09.808Z,0.70
2017-12-10T08:16:37.407Z,0.70
2017-12-10T08:19:04.930Z,0.70
2017-12-10T08:21:33.203Z,0.70
2017-12-10T08:24:00.719Z,0.70
2017-12-10T08:26:28.226Z,0.80
2017-12-10T08:28:55.742Z,0.80
2017-12-10T08:31:23.242Z,0.90
2017-12-10T08:33:50.830Z,0.90
2017-12-10T08:36:18.340Z,0.90
2017-12-10T08:38:45.970Z,1.00
2017-12-10T08:41:13.510Z,1.00
2017-12-10T08:43:41.031Z,1.10
2017-12-10T08:46:08.633Z,1.00
2017-12-10T08:48:36.158Z,1.10
2017-12-10T08:51:03.767Z,1.20
2017-12-10T08:53:31.314Z,1.20
2017-12-10T08:55:58.930Z,1.20
2017-12-10T08:58:26.435Z,1.20
2017-12-10T09:00:53.996Z,1.20
2017-12-10T09:03:21.572Z,1.20
2017-12-10T09:05:49.126Z,1.20
2017-12-10T09:08:16.640Z,1.20
2017-12-10T09:10:44.170Z,1.20
2017-12-10T09:13:11.717Z,1.20
2017-12-10T09:15:39.355Z,1.30
2017-12-10T09:18:06.882Z,1.30
2017-12-10T09:20:34.405Z,1.40
2017-12-10T09:23:01.939Z,1.40
2017-12-10T09:25:30.858Z,1.40
2017-12-10T09:27:58.394Z,1.40
2017-12-10T09:30:25.959Z,1.40
2017-12-10T09:32:53.530Z,1.30
2017-12-10T09:35:21.050Z,1.30
2017-12-10T09:37:49.346Z,1.50
2017-12-10T09:40:17.725Z,1.40
2017-12-10T09:42:46.015Z,1.40
2017-12-10T09:45:13.555Z,1.30
2017-12-10T09:47:41.823Z,1.40
2017-12-10T09:50:10.125Z,1.40
2017-12-10T09:52:37.687Z,1.40
2017-12-10T09:55:05.243Z,1.40
2017-12-10T09:57:33.562Z,1.30
2017-12-10T10:00:01.197Z,1.30
2017-12-10T10:02:28.698Z,1.20
2017-12-10T10:04:56.202Z,1.10
2017-12-10T10:07:23.722Z,1.10
2017-12-10T10:09:51.225Z,1.10
2017-12-10T10:12:18.830Z,1.20
2017-12-10T10:14:46.346Z,1.20
2017-12-10T10:17:13.874Z,1.20
2017-12-10T10:19:41.777Z,1.30
2017-12-10T10:22:09.338Z,1.30
2017-12-10T10:24:36.860Z,1.20
2017-12-10T10:27:04.391Z,1.30
2017-12-10T10:29:31.901Z,1.50
2017-12-10T10:32:00.193Z,1.60
2017-12-10T10:34:27.858Z,1.60
2017-12-10T10:36:55.411Z,1.60
2017-12-10T10:39:22.918Z,1.60
2017-12-10T10:41:50.437Z,1.70
2017-12-10T10:44:18.038Z,1.60
2017-12-10T10:46:45.659Z,1.70
2017-12-10T10:49:13.162Z,1.60
2017-12-10T10:51:40.705Z,1.60
2017-12-10T10:54:08.229Z,1.60
2017-12-10T10:56:35.916Z,1.70
2017-12-10T10:59:03.448Z,1.80
2017-12-10T11:01:31.719Z,1.70
2017-12-10T11:04:00.010Z,1.80
2017-12-10T11:06:28.293Z,1.80
2017-12-10T11:08:55.811Z,1.70
2017-12-10T11:11:23.314Z,1.80
2017-12-10T11:13:50.837Z,1.70
2017-12-10T11:16:18.344Z,1.70
2017-12-10T11:18:45.866Z,1.60
2017-12-10T11:21:13.368Z,1.60
2017-12-10T11:23:40.918Z,1.70
2017-12-10T11:26:08.428Z,1.70
2017-12-10T11:28:35.963Z,1.70
2017-12-10T11:31:03.478Z,1.70
2017-12-10T11:33:31.750Z,1.80
2017-12-10T11:36:00.038Z,1.70
2017-12-10T11:38:27.609Z,1.70
2017-12-10T11:40:55.162Z,1.70
2017-12-10T11:43:22.731Z,1.70
2017-12-10T11:45:50.296Z,1.60
2017-12-10T11:48:17.868Z,1.70
2017-12-10T11:50:45.416Z,1.60
2017-12-10T11:53:12.921Z,1.70
2017-12-10T11:55:40.446Z,1.60
2017-12-10T11:58:07.951Z,1.60
2017-12-10T12:00:36.242Z,1.60
2017-12-10T12:03:03.806Z,1.60
2017-12-10T12:05:31.392Z,1.70
2017-12-10T12:07:59.417Z,1.70
2017-12-10T12:10:26.938Z,1.50
2017-12-10T12:12:54.486Z,1.60
2017-12-10T12:15:22.051Z,1.60
2017-12-10T12:17:49.598Z,1.60
2017-12-10T12:20:17.115Z,1.50
2017-12-10T12:22:44.778Z,1.50
2017-12-10T12:25:12.381Z,1.50
2017-12-10T12:27:39.890Z,1.50
2017-12-10T12:30:07.401Z,1.50
2017-12-10T12:32:34.984Z,1.50
2017-12-10T12:35:02.501Z,1.50
2017-12-10T12:37:30.789Z,1.50
2017-12-10T12:39:59.068Z,1.50
2017-12-10T12:42:27.449Z,1.40
2017-12-10T12:44:55.865Z,1.40
2017-12-10T12:47:23.411Z,1.40
2017-12-10T12:49:51.282Z,1.40
2017-12-10T12:52:18.947Z,1.50
2017-12-10T12:54:46.642Z,1.40
2017-12-10T12:57:14.164Z,1.40
2017-12-10T12:59:41.667Z,1.40
2017-12-10T13:02:09.266Z,1.40
2017-12-10T13:04:37.535Z,1.40
2017-12-10T13:07:05.933Z,1.30
2017-12-10T13:09:33.431Z,1.30
2017-12-10T13:12:00.954Z,1.40
2017-12-10T13:14:28.594Z,1.30
2017-12-10T13:16:57.099Z,1.20
2017-12-10T13:19:24.657Z,1.20
2017-12-10T13:21:52.370Z,1.30
2017-12-10T13:24:19.999Z,1.30
2017-12-10T13:26:47.764Z,1.20
2017-12-10T13:29:15.372Z,1.20
2017-12-10T13:31:42.880Z,1.20
2017-12-10T13:34:10.430Z,1.20
2017-12-10T13:36:37.935Z,1.20
2017-12-10T13:39:05.459Z,1.20
2017-12-10T13:41:33.128Z,1.20
2017-12-10T13:44:00.660Z,1.20
2017-12-10T13:46:29.053Z,1.20
2017-12-10T13:48:56.579Z,1.20
2017-12-10T13:51:24.077Z,1.20
2017-12-10T13:53:51.702Z,1.20
2017-12-10T13:56:19.198Z,1.20
2017-12-10T13:58:46.718Z,1.20
2017-12-10T14:01:14.315Z,1.30
2017-12-10T14:03:41.921Z,1.20
2017-12-10T14:06:09.432Z,1.20
2017-12-10T14:08:36.980Z,1.20
2017-12-10T14:11:05.387Z,1.20
2017-12-10T14:13:32.939Z,1.20
2017-12-10T14:16:00.463Z,1.20
2017-12-10T14:18:28.003Z,1.20
2017-12-10T14:20:55.517Z,1.10
2017-12-10T14:23:23.178Z,1.00
2017-12-10T14:25:50.694Z,0.70
2017-12-10T14:28:19.134Z,0.40
2017-12-10T14:30:46.783Z,0.40
2017-12-10T14:33:14.342Z,0.20
2017-12-10T14:35:41.862Z,0.10
2017-12-10T14:38:09.374Z,-0.10
2017-12-10T14:40:36.915Z,-0.10
2017-12-10T14:43:05.194Z,-0.10
2017-12-10T14:45:33.518Z,-0.20
2017-12-10T14:48:01.028Z,-0.20
2017-12-10T14:50:29.024Z,-0.20
2017-12-10T14:52:56.650Z,-0.10
2017-12-10T14:55:24.939Z,-0.10
2017-12-10T14:57:53.211Z,-0.10
2017-12-10T15:00:21.506Z,-0.10
2017-12-10T15:02:49.039Z,-0.20
2017-12-10T15:05:16.616Z,-0.20
2017-12-10T15:07:44.966Z,-0.20
2017-12-10T15:10:12.546Z,-0.20
2017-12-10T15:12:40.824Z,-0.30
2017-12-10T15:15:09.443Z,-0.20
2017-12-10T15:17:36.984Z,-0.30
2017-12-10T15:20:05.384Z,-0.30
2017-12-10T15:22:32.890Z,-0.40
2017-12-10T15:25:00.442Z,-0.30
2017-12-10T15:27:27.948Z,-0.40
2017-12-10T15:29:55.511Z,-0.40
2017-12-10T15:32:23.086Z,-0.40
2017-12-10T15:34:50.595Z,-0.30
2017-12-10T15:37:18.491Z,-0.30
2017-12-10T15:39:46.054Z,-0.30
2017-12-10T15:42:13.575Z,-0.30
2017-12-10T15:44:41.186Z,-0.30
2017-12-10T15:47:08.774Z,-0.30
2017-12-10T15:49:36.307Z,-0.30
2017-12-10T15:52:03.862Z,-0.30
2017-12-10T15:54:31.372Z,-0.30
2017-12-10T15:56:58.896Z,-0.30
2017-12-10T15:59:26.407Z,-0.30
2017-12-10T16:01:54.002Z,-0.30
2017-12-10T16:04:21.515Z,-0.30
2017-12-10T16:06:49.123Z,-0.30
2017-12-10T16:09:16.695Z,-0.30
2017-12-10T16:11:44.236Z,-0.30
2017-12-10T16:14:12.514Z,-0.30
2017-12-10T16:16:40.916Z,-0.30
2017-12-10T16:19:08.783Z,-0.40
2017-12-10T16:21:37.150Z,-0.40
2017-12-10T16:24:04.673Z,-0.40
2017-12-10T16:26:32.312Z,-0.40
2017-12-10T16:28:59.831Z,-0.40
2017-12-10T16:31:27.338Z,-0.40
2017-12-10T16:33:54.871Z,-0.50
2017-12-10T16:36:22.499Z,-0.40
2017-12-10T16:38:50.786Z,-0.50
2017-12-10T16:41:19.054Z,-0.50
2017-12-10T16:43:47.462Z,-0.50
2017-12-10T16:46:15.002Z,-0.60
2017-12-10T16:48:43.402Z,-0.70
2017-12-10T16:51:11.086Z,-0.70
2017-12-10T16:53:38.709Z,-0.80
2017-12-10T16:56:06.991Z,-0.80
2017-12-10T16:58:34.554Z,-0.80
2017-12-10T17:01:02.151Z,-0.80
2017-12-10T17:03:29.779Z,-0.80
2017-12-10T17:05:58.198Z,-0.70
2017-12-10T17:08:26.747Z,-0.70
2017-12-10T17:10:54.403Z,-0.80
2017-12-10T17:13:21.924Z,-0.80
2017-12-10T17:15:49.523Z,-0.80
2017-12-10T17:18:17.219Z,-0.80
2017-12-10T17:20:44.764Z,-0.80
2017-12-10T17:23:12.357Z,-0.80
2017-12-10T17:25:39.989Z,-0.80
2017-12-10T17:28:07.545Z,-0.80
2017-12-10T17:30:35.102Z,-0.90
2017-12-10T17:33:02.769Z,-0.80
2017-12-10T17:35:31.298Z,-0.80
2017-12-10T17:37:59.017Z,-0.80
2017-12-10T17:40:26.555Z,-0.80
2017-12-10T17:42:54.939Z,-0.90
2017-12-10T17:45:22.621Z,-0.90
2017-12-10T17:47:50.171Z,-0.90
2017-12-10T17:50:17.758Z,-0.90
2017-12-10T17:52:45.301Z,-0.90
2017-12-10T17:55:12.845Z,-0.90
2017-12-10T17:57:41.244Z,-0.90
2017-12-10T18:00:08.894Z,-0.90
2017-12-10T18:02:36.468Z,-0.80
2017-12-10T18:05:04.058Z,-0.90
2017-12-10T18:07:31.567Z,-0.90
2017-12-10T18:09:59.958Z,-0.80
2017-12-10T18:12:27.792Z,-0.80
2017-12-10T18:14:55.334Z,-0.80
2017-12-10T18:17:22.935Z,-0.80
2017-12-10T18:19:51.226Z,-0.80
2017-12-10T18:22:18.763Z,-0.80
2017-12-10T18:24:47.158Z,-0.80
2017-12-10T18:27:14.699Z,-0.80
2017-12-10T18:29:42.297Z,-0.70
2017-12-10T18:32:09.956Z,-0.70
2017-12-10T18:34:37.479Z,-0.70
2017-12-10T18:37:05.090Z,-0.70
2017-12-10T18:39:32.620Z,-0.70
2017-12-10T18:42:01.115Z,-0.70
2017-12-10T18:44:28.635Z,-0.70
2017-12-10T18:46:56.352Z,-0.70
2017-12-10T18:49:24.112Z,-0.60
2017-12-10T18:51:51.619Z,-0.60
2017-12-10T18:54:19.219Z,-0.60
2017-12-10T18:56:47.502Z,-0.60
2017-12-10T18:59:15.062Z,-0.60
2017-12-10T19:01:42.616Z,-0.60
2017-12-10T19:04:10.127Z,-0.50
2017-12-10T19:06:37.771Z,-0.50
2017-12-10T19:09:06.122Z,-0.50
2017-12-10T19:11:33.684Z,-0.50
2017-12-10T19:14:01.256Z,-0.50
2017-12-10T19:16:28.782Z,-0.50
2017-12-10T19:18:57.105Z,-0.50
2017-12-10T19:21:24.680Z,-0.50
2017-12-10T19:23:52.420Z,-0.40
2017-12-10T19:26:19.966Z,-0.40
2017-12-10T19:28:47.527Z,-0.40
2017-12-10T19:31:15.088Z,-0.40
2017-12-10T19:33:42.660Z,-0.30
2017-12-10T19:36:10.212Z,-0.40
2017-12-10T19:38:37.719Z,-0.30
2017-12-10T19:41:05.256Z,-0.30
2017-12-10T19:43:32.762Z,-0.30
2017-12-10T19:46:01.072Z,-0.20
2017-12-10T19:48:28.624Z,-0.20
2017-12-10T19:50:56.151Z,-0.20
2017-12-10T19:53:23.748Z,-0.20
2017-12-10T19:55:51.322Z,-0.20
2017-12-10T19:58:18.867Z,-0.10
2017-12-10T20:00:46.429Z,0.00
2017-12-10T20:03:13.970Z,0.00
2017-12-10T20:05:41.564Z,0.00
2017-12-10T20:08:09.123Z,0.00
2017-12-10T20:10:36.659Z,0.00
2017-12-10T20:13:04.979Z,0.10
2017-12-10T20:15:32.521Z,0.10
2017-12-10T20:18:00.043Z,0.20
2017-12-10T20:20:28.475Z,0.20
2017-12-10T20:22:56.002Z,0.20
2017-12-10T20:25:24.406Z,0.20
2017-12-10T20:27:51.940Z,0.20
2017-12-10T20:30:20.226Z,0.30
2017-12-10T20:32:47.755Z,0.30
2017-12-10T20:35:15.364Z,0.30
2017-12-10T20:37:42.895Z,0.30
2017-12-10T20:40:11.170Z,0.40
2017-12-10T20:42:39.475Z,0.40
2017-12-10T20:45:07.022Z,0.40
2017-12-10T20:47:34.590Z,0.40
2017-12-10T20:50:02.098Z,0.40
2017-12-10T20:52:30.425Z,0.40
2017-12-10T20:54:57.936Z,0.40
2017-12-10T20:57:25.538Z,0.50
2017-12-10T20:59:53.121Z,0.50
2017-12-10T21:02:20.644Z,0.50
2017-12-10T21:04:48.946Z,0.50
2017-12-10T21:07:16.606Z,0.50
2017-12-10T21:09:44.172Z,0.60
2017-12-10T21:12:11.738Z,0.60
2017-12-10T21:14:39.386Z,0.60
2017-12-10T21:17:06.894Z,0.60
2017-12-10T21:19:34.538Z,0.50
2017-12-10T21:22:02.138Z,0.60
2017-12-10T21:24:30.466Z,0.60
2017-12-10T21:26:57.971Z,0.50
2017-12-10T21:29:25.506Z,0.60
2017-12-10T21:31:53.009Z,0.60
2017-12-10T21:34:21.425Z,0.60
2017-12-10T21:36:48.934Z,0.60
2017-12-10T21:39:16.453Z,0.90
2017-12-10T21:41:43.986Z,1.40
2017-12-10T21:44:11.506Z,2.20
2017-12-10T21:46:39.034Z,2.00
2017-12-10T21:49:06.575Z,2.30
2017-12-10T21:51:34.105Z,2.20
2017-12-10T21:54:02.393Z,2.50
2017-12-10T21:56:30.668Z,2.40
2017-12-10T21:58:58.995Z,2.40
2017-12-10T22:01:26.522Z,2.40
2017-12-10T22:03:54.031Z,2.30
2017-12-10T22:06:21.563Z,2.20
2017-12-10T22:08:49.060Z,2.20
2017-12-10T22:11:18.090Z,2.10
2017-12-10T22:13:45.650Z,2.10
2017-12-10T22:16:13.222Z,2.30
2017-12-10T22:18:40.730Z,2.30
2017-12-10T22:21:08.258Z,2.20
2017-12-10T22:23:35.772Z,2.20
2017-12-10T22:26:04.070Z,2.20
2017-12-10T22:28:31.579Z,2.20
2017-12-10T22:30:59.200Z,2.20
2017-12-10T22:33:26.723Z,2.10
2017-12-10T22:35:54.315Z,2.30
2017-12-10T22:38:21.834Z,2.20
2017-12-10T22:40:49.441Z,2.50
2017-12-10T22:43:16.998Z,2.50
2017-12-10T22:45:44.554Z,2.70
2017-12-10T22:48:12.058Z,2.70
2017-12-10T22:50:39.572Z,2.60
2017-12-10T22:53:07.109Z,2.60
2017-12-10T22:55:35.423Z,2.60
2017-12-10T22:58:02.993Z,2.60
2017-12-10T23:00:30.503Z,2.70
2017-12-10T23:02:58.097Z,2.80
2017-12-10T23:05:25.610Z,2.70
2017-12-10T23:07:53.137Z,2.70
2017-12-10T23:10:20.673Z,2.70
2017-12-10T23:12:48.205Z,2.80
2017-12-10T23:15:17.332Z,2.80
2017-12-10T23:17:44.895Z,2.70
2017-12-10T23:20:12.460Z,2.80
2017-12-10T23:22:40.018Z,2.60
2017-12-10T23:25:07.545Z,2.70
2017-12-10T23:27:35.846Z,2.90
2017-12-10T23:30:03.369Z,2.80
2017-12-10T23:32:30.982Z,2.80
2017-12-10T23:34:58.494Z,3.00
2017-12-10T23:37:26.021Z,2.80
2017-12-10T23:39:53.533Z,2.70
2017-12-10T23:42:21.814Z,2.80
2017-12-10T23:44:49.398Z,2.80
2017-12-10T23:47:16.971Z,2.80
2017-12-10T23:49:44.508Z,2.80
2017-12-10T23:52:12.022Z,2.80
2017-12-10T23:54:39.642Z,3.00
2017-12-10T23:57:07.150Z,2.90
2017-12-10T23:59:34.767Z,2.90
